sensor_id;sensor_type;location;lat;lon;timestamp;pressure;altitude;pressure_sealevel;temperature
11849;BMP180;5983;49.966;8.052;2022-11-15T00:00:48;100173.00;;;8.10
11849;BMP180;5983;49.966;8.052;2022-11-15T00:03:16;100170.00;;;8.10
11849;BMP180;5983;49.966;8.052;2022-11-15T00:05:43;100180.00;;;8.10
11849;BMP180;5983;49.966;8.052;2022-11-15T00:08:10;100184.00;;;8.10
11849;BMP180;5983;49.966;8.052;2022-11-15T00:10:38;100184.00;;;8.10
11849;BMP180;5983;49.966;8.052;2022-11-15T00:13:05;100183.00;;;8.10
11849;BMP180;5983;49.966;8.052;2022-11-15T00:15:36;100176.00;;;8.20
11849;BMP180;5983;49.966;8.052;2022-11-15T00:18:04;100186.00;;;8.10
11849;BMP180;5983;49.966;8.052;2022-11-15T00:20:33;100173.00;;;8.10
11849;BMP180;5983;49.966;8.052;2022-11-15T00:23:02;100173.00;;;8.10
11849;BMP180;5983;49.966;8.052;2022-11-15T00:25:30;100167.00;;;8.10
11849;BMP180;5983;49.966;8.052;2022-11-15T00:27:58;100163.00;;;8.10
11849;BMP180;5983;49.966;8.052;2022-11-15T00:30:27;100159.00;;;8.10
11849;BMP180;5983;49.966;8.052;2022-11-15T00:32:56;100149.00;;;8.10
11849;BMP180;5983;49.966;8.052;2022-11-15T00:35:23;100149.00;;;8.10
11849;BMP180;5983;49.966;8.052;2022-11-15T00:37:52;100156.00;;;8.10
11849;BMP180;5983;49.966;8.052;2022-11-15T00:40:19;100147.00;;;8.10
11849;BMP180;5983;49.966;8.052;2022-11-15T00:42:46;100146.00;;;8.20
11849;BMP180;5983;49.966;8.052;2022-11-15T00:45:13;100157.00;;;8.20
11849;BMP180;5983;49.966;8.052;2022-11-15T00:47:40;100157.00;;;8.20
11849;BMP180;5983;49.966;8.052;2022-11-15T00:50:08;100153.00;;;8.20
11849;BMP180;5983;49.966;8.052;2022-11-15T00:52:35;100152.00;;;8.10
11849;BMP180;5983;49.966;8.052;2022-11-15T00:55:03;100142.00;;;8.10
11849;BMP180;5983;49.966;8.052;2022-11-15T00:57:30;100137.00;;;8.10
11849;BMP180;5983;49.966;8.052;2022-11-15T00:59:57;100147.00;;;8.10
11849;BMP180;5983;49.966;8.052;2022-11-15T01:02:24;100139.00;;;8.10
11849;BMP180;5983;49.966;8.052;2022-11-15T01:04:51;100142.00;;;8.10
11849;BMP180;5983;49.966;8.052;2022-11-15T01:07:20;100140.00;;;8.10
11849;BMP180;5983;49.966;8.052;2022-11-15T01:09:47;100133.00;;;8.10
11849;BMP180;5983;49.966;8.052;2022-11-15T01:12:13;100142.00;;;8.10
11849;BMP180;5983;49.966;8.052;2022-11-15T01:14:43;100142.00;;;8.10
11849;BMP180;5983;49.966;8.052;2022-11-15T01:17:10;100147.00;;;8.20
11849;BMP180;5983;49.966;8.052;2022-11-15T01:19:37;100145.00;;;8.20
11849;BMP180;5983;49.966;8.052;2022-11-15T01:22:04;100135.00;;;8.20
11849;BMP180;5983;49.966;8.052;2022-11-15T01:24:33;100133.00;;;8.20
11849;BMP180;5983;49.966;8.052;2022-11-15T01:27:00;100136.00;;;8.20
11849;BMP180;5983;49.966;8.052;2022-11-15T01:29:27;100128.00;;;8.20
11849;BMP180;5983;49.966;8.052;2022-11-15T01:31:54;100123.00;;;8.20
11849;BMP180;5983;49.966;8.052;2022-11-15T01:34:21;100130.00;;;8.20
11849;BMP180;5983;49.966;8.052;2022-11-15T01:36:48;100121.00;;;8.20
11849;BMP180;5983;49.966;8.052;2022-11-15T01:39:15;100122.00;;;8.20
11849;BMP180;5983;49.966;8.052;2022-11-15T01:41:44;100116.00;;;8.20
11849;BMP180;5983;49.966;8.052;2022-11-15T01:44:41;100125.00;;;8.20
11849;BMP180;5983;49.966;8.052;2022-11-15T01:47:12;100123.00;;;8.20
11849;BMP180;5983;49.966;8.052;2022-11-15T01:49:51;100114.00;;;8.20
11849;BMP180;5983;49.966;8.052;2022-11-15T01:52:22;100113.00;;;8.20
11849;BMP180;5983;49.966;8.052;2022-11-15T01:54:58;100108.00;;;8.30
11849;BMP180;5983;49.966;8.052;2022-11-15T01:57:28;100105.00;;;8.30
11849;BMP180;5983;49.966;8.052;2022-11-15T01:59:57;100109.00;;;8.30
11849;BMP180;5983;49.966;8.052;2022-11-15T02:02:24;100099.00;;;8.30
11849;BMP180;5983;49.966;8.052;2022-11-15T02:04:52;100097.00;;;8.30
11849;BMP180;5983;49.966;8.052;2022-11-15T02:07:21;100091.00;;;8.30
11849;BMP180;5983;49.966;8.052;2022-11-15T02:09:49;100094.00;;;8.30
11849;BMP180;5983;49.966;8.052;2022-11-15T02:12:20;100089.00;;;8.30
11849;BMP180;5983;49.966;8.052;2022-11-15T02:14:53;100087.00;;;8.30
11849;BMP180;5983;49.966;8.052;2022-11-15T02:17:48;100079.00;;;8.30
11849;BMP180;5983;49.966;8.052;2022-11-15T02:20:41;100087.00;;;8.30
11849;BMP180;5983;49.966;8.052;2022-11-15T02:23:55;100079.00;;;8.30
11849;BMP180;5983;49.966;8.052;2022-11-15T02:27:13;100070.00;;;8.30
11849;BMP180;5983;49.966;8.052;2022-11-15T02:30:25;100067.00;;;8.40
11849;BMP180;5983;49.966;8.052;2022-11-15T02:33:03;100065.00;;;8.40
11849;BMP180;5983;49.966;8.052;2022-11-15T02:35:43;100055.00;;;8.30
11849;BMP180;5983;49.966;8.052;2022-11-15T02:38:22;100050.00;;;8.30
11849;BMP180;5983;49.966;8.052;2022-11-15T02:40:58;100055.00;;;8.30
11849;BMP180;5983;49.966;8.052;2022-11-15T02:43:33;100049.00;;;8.30
11849;BMP180;5983;49.966;8.052;2022-11-15T02:46:27;100033.00;;;8.30
11849;BMP180;5983;49.966;8.052;2022-11-15T02:49:11;100031.00;;;8.30
11849;BMP180;5983;49.966;8.052;2022-11-15T02:51:40;100030.00;;;8.30
11849;BMP180;5983;49.966;8.052;2022-11-15T02:54:14;100038.00;;;8.20
11849;BMP180;5983;49.966;8.052;2022-11-15T02:56:45;100033.00;;;8.20
11849;BMP180;5983;49.966;8.052;2022-11-15T02:59:52;100041.00;;;8.10
11849;BMP180;5983;49.966;8.052;2022-11-15T03:02:47;100029.00;;;8.10
11849;BMP180;5983;49.966;8.052;2022-11-15T03:05:25;100030.00;;;8.10
11849;BMP180;5983;49.966;8.052;2022-11-15T03:08:04;100036.00;;;8.10
11849;BMP180;5983;49.966;8.052;2022-11-15T03:10:42;100036.00;;;8.10
11849;BMP180;5983;49.966;8.052;2022-11-15T03:13:26;100032.00;;;8.10
11849;BMP180;5983;49.966;8.052;2022-11-15T03:16:02;100038.00;;;8.00
11849;BMP180;5983;49.966;8.052;2022-11-15T03:18:36;100032.00;;;8.00
11849;BMP180;5983;49.966;8.052;2022-11-15T03:21:07;100045.00;;;7.90
11849;BMP180;5983;49.966;8.052;2022-11-15T03:23:38;100040.00;;;7.90
11849;BMP180;5983;49.966;8.052;2022-11-15T03:26:09;100033.00;;;7.90
11849;BMP180;5983;49.966;8.052;2022-11-15T03:28:42;100031.00;;;7.90
11849;BMP180;5983;49.966;8.052;2022-11-15T03:31:13;100035.00;;;7.80
11849;BMP180;5983;49.966;8.052;2022-11-15T03:34:06;100037.00;;;7.80
11849;BMP180;5983;49.966;8.052;2022-11-15T03:36:35;100039.00;;;7.80
11849;BMP180;5983;49.966;8.052;2022-11-15T03:39:07;100042.00;;;7.90
11849;BMP180;5983;49.966;8.052;2022-11-15T03:41:43;100037.00;;;7.90
11849;BMP180;5983;49.966;8.052;2022-11-15T03:44:21;100038.00;;;7.90
11849;BMP180;5983;49.966;8.052;2022-11-15T03:47:01;100048.00;;;7.90
11849;BMP180;5983;49.966;8.052;2022-11-15T03:49:33;100028.00;;;8.00
11849;BMP180;5983;49.966;8.052;2022-11-15T03:52:03;100037.00;;;8.00
11849;BMP180;5983;49.966;8.052;2022-11-15T03:54:31;100036.00;;;8.00
11849;BMP180;5983;49.966;8.052;2022-11-15T03:56:58;100048.00;;;8.10
11849;BMP180;5983;49.966;8.052;2022-11-15T03:59:25;100047.00;;;8.10
11849;BMP180;5983;49.966;8.052;2022-11-15T04:01:52;100044.00;;;8.10
11849;BMP180;5983;49.966;8.052;2022-11-15T04:04:19;100044.00;;;8.10
11849;BMP180;5983;49.966;8.052;2022-11-15T04:06:47;100043.00;;;8.10
11849;BMP180;5983;49.966;8.052;2022-11-15T04:09:14;100045.00;;;8.10
11849;BMP180;5983;49.966;8.052;2022-11-15T04:11:41;100036.00;;;8.10
11849;BMP180;5983;49.966;8.052;2022-11-15T04:14:08;100038.00;;;8.10
11849;BMP180;5983;49.966;8.052;2022-11-15T04:16:35;100053.00;;;8.10
11849;BMP180;5983;49.966;8.052;2022-11-15T04:19:02;100044.00;;;8.10
11849;BMP180;5983;49.966;8.052;2022-11-15T04:21:48;100047.00;;;8.10
11849;BMP180;5983;49.966;8.052;2022-11-15T04:24:33;100039.00;;;8.10
11849;BMP180;5983;49.966;8.052;2022-11-15T04:27:00;100037.00;;;8.20
11849;BMP180;5983;49.966;8.052;2022-11-15T04:29:27;100037.00;;;8.20
11849;BMP180;5983;49.966;8.052;2022-11-15T04:32:06;100040.00;;;8.20
11849;BMP180;5983;49.966;8.052;2022-11-15T04:34:33;100027.00;;;8.20
11849;BMP180;5983;49.966;8.052;2022-11-15T04:37:02;100023.00;;;8.20
11849;BMP180;5983;49.966;8.052;2022-11-15T04:39:37;100029.00;;;8.20
11849;BMP180;5983;49.966;8.052;2022-11-15T04:42:04;100024.00;;;8.30
11849;BMP180;5983;49.966;8.052;2022-11-15T04:44:31;100015.00;;;8.30
11849;BMP180;5983;49.966;8.052;2022-11-15T04:46:58;100009.00;;;8.30
11849;BMP180;5983;49.966;8.052;2022-11-15T04:49:25;99999.00;;;8.30
11849;BMP180;5983;49.966;8.052;2022-11-15T04:51:52;99998.00;;;8.30
11849;BMP180;5983;49.966;8.052;2022-11-15T04:54:20;100002.00;;;8.30
11849;BMP180;5983;49.966;8.052;2022-11-15T04:56:47;99994.00;;;8.30
11849;BMP180;5983;49.966;8.052;2022-11-15T04:59:14;99987.00;;;8.30
11849;BMP180;5983;49.966;8.052;2022-11-15T05:01:41;99989.00;;;8.30
11849;BMP180;5983;49.966;8.052;2022-11-15T05:04:08;99990.00;;;8.30
11849;BMP180;5983;49.966;8.052;2022-11-15T05:06:48;99985.00;;;8.20
11849;BMP180;5983;49.966;8.052;2022-11-15T05:09:16;99979.00;;;8.30
11849;BMP180;5983;49.966;8.052;2022-11-15T05:11:45;99978.00;;;8.30
11849;BMP180;5983;49.966;8.052;2022-11-15T05:14:12;99977.00;;;8.20
11849;BMP180;5983;49.966;8.052;2022-11-15T05:16:40;99981.00;;;8.10
11849;BMP180;5983;49.966;8.052;2022-11-15T05:19:07;99984.00;;;8.10
11849;BMP180;5983;49.966;8.052;2022-11-15T05:21:34;99982.00;;;8.00
11849;BMP180;5983;49.966;8.052;2022-11-15T05:24:02;99984.00;;;8.00
11849;BMP180;5983;49.966;8.052;2022-11-15T05:26:30;99985.00;;;8.00
11849;BMP180;5983;49.966;8.052;2022-11-15T05:28:59;99992.00;;;7.90
11849;BMP180;5983;49.966;8.052;2022-11-15T05:31:27;99989.00;;;7.90
11849;BMP180;5983;49.966;8.052;2022-11-15T05:33:55;99985.00;;;7.90
11849;BMP180;5983;49.966;8.052;2022-11-15T05:36:31;99995.00;;;7.90
11849;BMP180;5983;49.966;8.052;2022-11-15T05:39:00;99991.00;;;7.90
11849;BMP180;5983;49.966;8.052;2022-11-15T05:41:33;99993.00;;;7.90
11849;BMP180;5983;49.966;8.052;2022-11-15T05:44:05;100001.00;;;7.90
11849;BMP180;5983;49.966;8.052;2022-11-15T05:46:35;99993.00;;;7.90
11849;BMP180;5983;49.966;8.052;2022-11-15T05:49:07;100000.00;;;8.00
11849;BMP180;5983;49.966;8.052;2022-11-15T05:51:37;99991.00;;;8.00
11849;BMP180;5983;49.966;8.052;2022-11-15T05:54:04;99993.00;;;8.00
11849;BMP180;5983;49.966;8.052;2022-11-15T05:56:31;99988.00;;;8.10
11849;BMP180;5983;49.966;8.052;2022-11-15T05:58:59;99994.00;;;8.10
11849;BMP180;5983;49.966;8.052;2022-11-15T06:01:27;99990.00;;;8.10
11849;BMP180;5983;49.966;8.052;2022-11-15T06:03:54;99993.00;;;8.10
11849;BMP180;5983;49.966;8.052;2022-11-15T06:06:21;99995.00;;;8.10
11849;BMP180;5983;49.966;8.052;2022-11-15T06:08:48;99997.00;;;8.10
11849;BMP180;5983;49.966;8.052;2022-11-15T06:11:15;99996.00;;;8.10
11849;BMP180;5983;49.966;8.052;2022-11-15T06:13:42;99991.00;;;8.20
11849;BMP180;5983;49.966;8.052;2022-11-15T06:16:09;99974.00;;;8.20
11849;BMP180;5983;49.966;8.052;2022-11-15T06:18:38;99970.00;;;8.20
11849;BMP180;5983;49.966;8.052;2022-11-15T06:21:05;99979.00;;;8.20
11849;BMP180;5983;49.966;8.052;2022-11-15T06:23:34;99986.00;;;8.20
11849;BMP180;5983;49.966;8.052;2022-11-15T06:26:02;99988.00;;;8.20
11849;BMP180;5983;49.966;8.052;2022-11-15T06:28:30;99990.00;;;8.10
11849;BMP180;5983;49.966;8.052;2022-11-15T06:31:03;99988.00;;;8.10
11849;BMP180;5983;49.966;8.052;2022-11-15T06:33:30;99998.00;;;8.00
11849;BMP180;5983;49.966;8.052;2022-11-15T06:36:01;99994.00;;;8.00
11849;BMP180;5983;49.966;8.052;2022-11-15T06:38:28;99986.00;;;8.00
11849;BMP180;5983;49.966;8.052;2022-11-15T06:41:01;99987.00;;;8.10
11849;BMP180;5983;49.966;8.052;2022-11-15T06:43:27;99993.00;;;8.10
11849;BMP180;5983;49.966;8.052;2022-11-15T06:45:54;99990.00;;;8.00
11849;BMP180;5983;49.966;8.052;2022-11-15T06:48:21;99996.00;;;8.00
11849;BMP180;5983;49.966;8.052;2022-11-15T06:50:51;99996.00;;;8.00
11849;BMP180;5983;49.966;8.052;2022-11-15T06:53:19;99997.00;;;8.00
11849;BMP180;5983;49.966;8.052;2022-11-15T06:55:47;100001.00;;;7.90
11849;BMP180;5983;49.966;8.052;2022-11-15T06:58:14;99995.00;;;8.00
11849;BMP180;5983;49.966;8.052;2022-11-15T07:00:41;100002.00;;;8.00
11849;BMP180;5983;49.966;8.052;2022-11-15T07:03:09;100010.00;;;8.00
11849;BMP180;5983;49.966;8.052;2022-11-15T07:05:36;99999.00;;;8.00
11849;BMP180;5983;49.966;8.052;2022-11-15T07:08:04;99992.00;;;8.10
11849;BMP180;5983;49.966;8.052;2022-11-15T07:10:32;99993.00;;;8.10
11849;BMP180;5983;49.966;8.052;2022-11-15T07:12:59;99991.00;;;8.10
11849;BMP180;5983;49.966;8.052;2022-11-15T07:15:26;100003.00;;;8.00
11849;BMP180;5983;49.966;8.052;2022-11-15T07:17:53;100003.00;;;8.00
11849;BMP180;5983;49.966;8.052;2022-11-15T07:20:20;99993.00;;;8.00
11849;BMP180;5983;49.966;8.052;2022-11-15T07:22:47;100001.00;;;8.10
11849;BMP180;5983;49.966;8.052;2022-11-15T07:25:14;99998.00;;;8.10
11849;BMP180;5983;49.966;8.052;2022-11-15T07:27:42;99993.00;;;8.10
11849;BMP180;5983;49.966;8.052;2022-11-15T07:30:11;99999.00;;;8.20
11849;BMP180;5983;49.966;8.052;2022-11-15T07:32:38;100009.00;;;8.30
11849;BMP180;5983;49.966;8.052;2022-11-15T07:35:05;99996.00;;;8.30
11849;BMP180;5983;49.966;8.052;2022-11-15T07:37:32;100002.00;;;8.30
11849;BMP180;5983;49.966;8.052;2022-11-15T07:39:59;99997.00;;;8.40
11849;BMP180;5983;49.966;8.052;2022-11-15T07:42:26;99998.00;;;8.40
11849;BMP180;5983;49.966;8.052;2022-11-15T07:45:12;99999.00;;;8.40
11849;BMP180;5983;49.966;8.052;2022-11-15T07:47:39;100010.00;;;8.40
11849;BMP180;5983;49.966;8.052;2022-11-15T07:50:06;99999.00;;;8.50
11849;BMP180;5983;49.966;8.052;2022-11-15T07:52:33;100000.00;;;8.50
11849;BMP180;5983;49.966;8.052;2022-11-15T07:55:00;100003.00;;;8.50
11849;BMP180;5983;49.966;8.052;2022-11-15T07:57:29;100004.00;;;8.60
11849;BMP180;5983;49.966;8.052;2022-11-15T07:59:56;100008.00;;;8.60
11849;BMP180;5983;49.966;8.052;2022-11-15T08:02:24;100005.00;;;8.60
11849;BMP180;5983;49.966;8.052;2022-11-15T08:04:51;100014.00;;;8.60
11849;BMP180;5983;49.966;8.052;2022-11-15T08:07:18;100008.00;;;8.70
11849;BMP180;5983;49.966;8.052;2022-11-15T08:09:45;100002.00;;;8.70
11849;BMP180;5983;49.966;8.052;2022-11-15T08:12:11;100008.00;;;8.70
11849;BMP180;5983;49.966;8.052;2022-11-15T08:14:39;100000.00;;;8.80
11849;BMP180;5983;49.966;8.052;2022-11-15T08:17:06;99997.00;;;8.90
11849;BMP180;5983;49.966;8.052;2022-11-15T08:19:34;99995.00;;;8.90
11849;BMP180;5983;49.966;8.052;2022-11-15T08:22:01;99998.00;;;9.00
11849;BMP180;5983;49.966;8.052;2022-11-15T08:24:28;99995.00;;;9.10
11849;BMP180;5983;49.966;8.052;2022-11-15T08:26:54;99991.00;;;9.20
11849;BMP180;5983;49.966;8.052;2022-11-15T08:29:22;99989.00;;;9.30
11849;BMP180;5983;49.966;8.052;2022-11-15T08:31:49;99997.00;;;9.40
11849;BMP180;5983;49.966;8.052;2022-11-15T08:34:15;99988.00;;;9.50
11849;BMP180;5983;49.966;8.052;2022-11-15T08:36:44;99989.00;;;9.60
11849;BMP180;5983;49.966;8.052;2022-11-15T08:39:11;99989.00;;;9.70
11849;BMP180;5983;49.966;8.052;2022-11-15T08:41:39;99986.00;;;9.80
11849;BMP180;5983;49.966;8.052;2022-11-15T08:44:06;99991.00;;;9.80
11849;BMP180;5983;49.966;8.052;2022-11-15T08:46:33;99992.00;;;9.80
11849;BMP180;5983;49.966;8.052;2022-11-15T08:49:00;99992.00;;;9.80
11849;BMP180;5983;49.966;8.052;2022-11-15T08:51:27;99995.00;;;9.80
11849;BMP180;5983;49.966;8.052;2022-11-15T08:53:55;99998.00;;;9.80
11849;BMP180;5983;49.966;8.052;2022-11-15T08:56:22;99982.00;;;9.80
11849;BMP180;5983;49.966;8.052;2022-11-15T08:58:49;99991.00;;;9.90
11849;BMP180;5983;49.966;8.052;2022-11-15T09:01:19;99992.00;;;9.90
11849;BMP180;5983;49.966;8.052;2022-11-15T09:03:46;99990.00;;;9.90
11849;BMP180;5983;49.966;8.052;2022-11-15T09:06:13;99991.00;;;9.90
11849;BMP180;5983;49.966;8.052;2022-11-15T09:08:41;99978.00;;;10.00
11849;BMP180;5983;49.966;8.052;2022-11-15T09:11:10;99978.00;;;10.10
11849;BMP180;5983;49.966;8.052;2022-11-15T09:13:37;99977.00;;;10.10
11849;BMP180;5983;49.966;8.052;2022-11-15T09:16:05;99979.00;;;10.20
11849;BMP180;5983;49.966;8.052;2022-11-15T09:18:32;99972.00;;;10.20
11849;BMP180;5983;49.966;8.052;2022-11-15T09:21:00;99970.00;;;10.30
11849;BMP180;5983;49.966;8.052;2022-11-15T09:23:28;99976.00;;;10.30
11849;BMP180;5983;49.966;8.052;2022-11-15T09:25:59;99973.00;;;10.40
11849;BMP180;5983;49.966;8.052;2022-11-15T09:28:30;99975.00;;;10.40
11849;BMP180;5983;49.966;8.052;2022-11-15T09:30:59;99972.00;;;10.40
11849;BMP180;5983;49.966;8.052;2022-11-15T09:33:27;99968.00;;;10.50
11849;BMP180;5983;49.966;8.052;2022-11-15T09:35:54;99967.00;;;10.50
11849;BMP180;5983;49.966;8.052;2022-11-15T09:38:26;99973.00;;;10.50
11849;BMP180;5983;49.966;8.052;2022-11-15T09:41:17;99963.00;;;10.60
11849;BMP180;5983;49.966;8.052;2022-11-15T09:44:04;99970.00;;;10.60
11849;BMP180;5983;49.966;8.052;2022-11-15T09:46:49;99970.00;;;10.60
11849;BMP180;5983;49.966;8.052;2022-11-15T09:49:22;99967.00;;;10.60
11849;BMP180;5983;49.966;8.052;2022-11-15T09:51:53;99968.00;;;10.70
11849;BMP180;5983;49.966;8.052;2022-11-15T09:54:29;99968.00;;;10.70
11849;BMP180;5983;49.966;8.052;2022-11-15T09:57:04;99968.00;;;10.70
11849;BMP180;5983;49.966;8.052;2022-11-15T09:59:55;99968.00;;;10.70
11849;BMP180;5983;49.966;8.052;2022-11-15T10:02:46;99957.00;;;10.70
11849;BMP180;5983;49.966;8.052;2022-11-15T10:05:19;99952.00;;;10.70
11849;BMP180;5983;49.966;8.052;2022-11-15T10:07:55;99963.00;;;10.80
11849;BMP180;5983;49.966;8.052;2022-11-15T10:10:32;99965.00;;;10.80
11849;BMP180;5983;49.966;8.052;2022-11-15T10:13:02;99962.00;;;10.80
11849;BMP180;5983;49.966;8.052;2022-11-15T10:15:31;99951.00;;;10.80
11849;BMP180;5983;49.966;8.052;2022-11-15T10:18:16;99953.00;;;10.80
11849;BMP180;5983;49.966;8.052;2022-11-15T10:20:50;99950.00;;;10.80
11849;BMP180;5983;49.966;8.052;2022-11-15T10:23:20;99935.00;;;10.80
11849;BMP180;5983;49.966;8.052;2022-11-15T10:25:51;99930.00;;;10.90
11849;BMP180;5983;49.966;8.052;2022-11-15T10:28:25;99937.00;;;10.90
11849;BMP180;5983;49.966;8.052;2022-11-15T10:30:56;99933.00;;;10.90
11849;BMP180;5983;49.966;8.052;2022-11-15T10:33:29;99932.00;;;10.90
11849;BMP180;5983;49.966;8.052;2022-11-15T10:36:21;99927.00;;;11.00
11849;BMP180;5983;49.966;8.052;2022-11-15T10:38:57;99919.00;;;11.10
11849;BMP180;5983;49.966;8.052;2022-11-15T10:41:36;99916.00;;;11.10
11849;BMP180;5983;49.966;8.052;2022-11-15T10:44:20;99918.00;;;11.20
11849;BMP180;5983;49.966;8.052;2022-11-15T10:50:25;99893.00;;;11.40
11849;BMP180;5983;49.966;8.052;2022-11-15T10:52:53;99880.00;;;11.70
11849;BMP180;5983;49.966;8.052;2022-11-15T10:55:26;99872.00;;;11.90
11849;BMP180;5983;49.966;8.052;2022-11-15T10:58:03;99866.00;;;12.20
11849;BMP180;5983;49.966;8.052;2022-11-15T11:00:35;99865.00;;;12.60
11849;BMP180;5983;49.966;8.052;2022-11-15T11:03:24;99870.00;;;12.80
11849;BMP180;5983;49.966;8.052;2022-11-15T11:06:06;99862.00;;;12.90
11849;BMP180;5983;49.966;8.052;2022-11-15T11:08:33;99840.00;;;12.90
11849;BMP180;5983;49.966;8.052;2022-11-15T11:11:03;99840.00;;;13.00
11849;BMP180;5983;49.966;8.052;2022-11-15T11:13:32;99839.00;;;13.00
11849;BMP180;5983;49.966;8.052;2022-11-15T11:19:33;99848.00;;;12.90
11849;BMP180;5983;49.966;8.052;2022-11-15T11:22:15;99841.00;;;12.90
11849;BMP180;5983;49.966;8.052;2022-11-15T11:24:51;99848.00;;;12.80
11849;BMP180;5983;49.966;8.052;2022-11-15T11:27:36;99838.00;;;12.70
11849;BMP180;5983;49.966;8.052;2022-11-15T11:30:12;99850.00;;;12.70
11849;BMP180;5983;49.966;8.052;2022-11-15T11:33:07;99833.00;;;12.60
11849;BMP180;5983;49.966;8.052;2022-11-15T11:36:05;99837.00;;;12.60
11849;BMP180;5983;49.966;8.052;2022-11-15T11:38:50;99836.00;;;12.70
11849;BMP180;5983;49.966;8.052;2022-11-15T11:41:49;99831.00;;;12.70
11849;BMP180;5983;49.966;8.052;2022-11-15T11:44:30;99827.00;;;12.70
11849;BMP180;5983;49.966;8.052;2022-11-15T11:47:01;99813.00;;;12.60
11849;BMP180;5983;49.966;8.052;2022-11-15T11:49:41;99806.00;;;12.70
11849;BMP180;5983;49.966;8.052;2022-11-15T11:52:16;99812.00;;;12.70
11849;BMP180;5983;49.966;8.052;2022-11-15T11:54:59;99818.00;;;12.70
11849;BMP180;5983;49.966;8.052;2022-11-15T11:57:37;99818.00;;;12.70
11849;BMP180;5983;49.966;8.052;2022-11-15T12:00:18;99808.00;;;12.70
11849;BMP180;5983;49.966;8.052;2022-11-15T12:02:59;99806.00;;;12.70
11849;BMP180;5983;49.966;8.052;2022-11-15T12:05:35;99805.00;;;12.60
11849;BMP180;5983;49.966;8.052;2022-11-15T12:08:27;99805.00;;;12.60
11849;BMP180;5983;49.966;8.052;2022-11-15T12:11:08;99799.00;;;12.60
11849;BMP180;5983;49.966;8.052;2022-11-15T12:13:38;99793.00;;;12.60
11849;BMP180;5983;49.966;8.052;2022-11-15T12:16:13;99791.00;;;12.60
11849;BMP180;5983;49.966;8.052;2022-11-15T12:18:47;99787.00;;;12.50
11849;BMP180;5983;49.966;8.052;2022-11-15T12:21:23;99784.00;;;12.50
11849;BMP180;5983;49.966;8.052;2022-11-15T12:23:59;99783.00;;;12.50
11849;BMP180;5983;49.966;8.052;2022-11-15T12:26:35;99779.00;;;12.40
11849;BMP180;5983;49.966;8.052;2022-11-15T12:29:13;99778.00;;;12.40
11849;BMP180;5983;49.966;8.052;2022-11-15T12:31:44;99769.00;;;12.40
11849;BMP180;5983;49.966;8.052;2022-11-15T12:34:36;99765.00;;;12.40
11849;BMP180;5983;49.966;8.052;2022-11-15T12:40:29;99757.00;;;12.40
11849;BMP180;5983;49.966;8.052;2022-11-15T12:46:04;99742.00;;;12.40
11849;BMP180;5983;49.966;8.052;2022-11-15T12:48:57;99741.00;;;12.40
11849;BMP180;5983;49.966;8.052;2022-11-15T12:52:03;99725.00;;;12.40
11849;BMP180;5983;49.966;8.052;2022-11-15T12:54:59;99719.00;;;12.40
11849;BMP180;5983;49.966;8.052;2022-11-15T12:57:40;99717.00;;;12.40
11849;BMP180;5983;49.966;8.052;2022-11-15T13:00:43;99716.00;;;12.40
11849;BMP180;5983;49.966;8.052;2022-11-15T13:03:34;99711.00;;;12.50
11849;BMP180;5983;49.966;8.052;2022-11-15T13:06:39;99704.00;;;12.50
11849;BMP180;5983;49.966;8.052;2022-11-15T13:12:55;99707.00;;;12.60
11849;BMP180;5983;49.966;8.052;2022-11-15T13:15:44;99689.00;;;12.60
11849;BMP180;5983;49.966;8.052;2022-11-15T13:18:41;99699.00;;;12.60
11849;BMP180;5983;49.966;8.052;2022-11-15T13:21:22;99689.00;;;12.60
11849;BMP180;5983;49.966;8.052;2022-11-15T13:24:13;99687.00;;;12.60
11849;BMP180;5983;49.966;8.052;2022-11-15T13:26:42;99688.00;;;12.60
11849;BMP180;5983;49.966;8.052;2022-11-15T13:29:18;99680.00;;;12.60
11849;BMP180;5983;49.966;8.052;2022-11-15T13:31:47;99683.00;;;12.60
11849;BMP180;5983;49.966;8.052;2022-11-15T13:34:26;99689.00;;;12.60
11849;BMP180;5983;49.966;8.052;2022-11-15T13:36:54;99677.00;;;12.50
11849;BMP180;5983;49.966;8.052;2022-11-15T13:39:29;99673.00;;;12.50
11849;BMP180;5983;49.966;8.052;2022-11-15T13:41:56;99664.00;;;12.50
11849;BMP180;5983;49.966;8.052;2022-11-15T13:44:27;99667.00;;;12.50
11849;BMP180;5983;49.966;8.052;2022-11-15T13:47:04;99663.00;;;12.40
11849;BMP180;5983;49.966;8.052;2022-11-15T13:49:33;99654.00;;;12.40
11849;BMP180;5983;49.966;8.052;2022-11-15T13:52:03;99651.00;;;12.40
11849;BMP180;5983;49.966;8.052;2022-11-15T13:54:35;99654.00;;;12.40
11849;BMP180;5983;49.966;8.052;2022-11-15T13:57:12;99650.00;;;12.30
11849;BMP180;5983;49.966;8.052;2022-11-15T13:59:49;99644.00;;;12.30
11849;BMP180;5983;49.966;8.052;2022-11-15T14:02:19;99649.00;;;12.30
11849;BMP180;5983;49.966;8.052;2022-11-15T14:04:51;99643.00;;;12.30
11849;BMP180;5983;49.966;8.052;2022-11-15T14:07:22;99655.00;;;12.30
11849;BMP180;5983;49.966;8.052;2022-11-15T14:09:50;99629.00;;;12.20
11849;BMP180;5983;49.966;8.052;2022-11-15T14:12:30;99634.00;;;12.20
11849;BMP180;5983;49.966;8.052;2022-11-15T14:15:19;99638.00;;;12.20
11849;BMP180;5983;49.966;8.052;2022-11-15T14:17:51;99624.00;;;12.20
11849;BMP180;5983;49.966;8.052;2022-11-15T14:20:31;99617.00;;;12.20
11849;BMP180;5983;49.966;8.052;2022-11-15T14:23:01;99610.00;;;12.20
11849;BMP180;5983;49.966;8.052;2022-11-15T14:25:29;99608.00;;;12.20
11849;BMP180;5983;49.966;8.052;2022-11-15T14:28:14;99592.00;;;12.20
11849;BMP180;5983;49.966;8.052;2022-11-15T14:30:44;99589.00;;;12.20
11849;BMP180;5983;49.966;8.052;2022-11-15T14:33:22;99596.00;;;12.20
11849;BMP180;5983;49.966;8.052;2022-11-15T14:35:50;99585.00;;;12.20
11849;BMP180;5983;49.966;8.052;2022-11-15T14:38:17;99575.00;;;12.20
11849;BMP180;5983;49.966;8.052;2022-11-15T14:40:44;99576.00;;;12.20
11849;BMP180;5983;49.966;8.052;2022-11-15T14:43:12;99572.00;;;12.20
11849;BMP180;5983;49.966;8.052;2022-11-15T14:45:40;99563.00;;;12.20
11849;BMP180;5983;49.966;8.052;2022-11-15T14:48:08;99566.00;;;12.20
11849;BMP180;5983;49.966;8.052;2022-11-15T14:50:36;99563.00;;;12.20
11849;BMP180;5983;49.966;8.052;2022-11-15T14:53:04;99555.00;;;12.20
11849;BMP180;5983;49.966;8.052;2022-11-15T14:55:33;99549.00;;;12.20
11849;BMP180;5983;49.966;8.052;2022-11-15T14:58:02;99548.00;;;12.20
11849;BMP180;5983;49.966;8.052;2022-11-15T15:00:30;99550.00;;;12.20
11849;BMP180;5983;49.966;8.052;2022-11-15T15:02:57;99540.00;;;12.20
11849;BMP180;5983;49.966;8.052;2022-11-15T15:05:30;99547.00;;;12.20
11849;BMP180;5983;49.966;8.052;2022-11-15T15:07:58;99539.00;;;12.20
11849;BMP180;5983;49.966;8.052;2022-11-15T15:10:27;99531.00;;;12.20
11849;BMP180;5983;49.966;8.052;2022-11-15T15:12:56;99527.00;;;12.20